sensor_id;sensor_type;location;lat;lon;timestamp;P1;durP1;ratioP1;P2;durP2;ratioP2
7843;SDS011;3967;48.702;9.326;2023-04-03T00:01:16;2.30;;;2.10;;
7843;SDS011;3967;48.702;9.326;2023-04-03T00:03:43;3.20;;;2.17;;
7843;SDS011;3967;48.702;9.326;2023-04-03T00:06:10;2.30;;;1.87;;
7843;SDS011;3967;48.702;9.326;2023-04-03T00:08:38;2.40;;;1.90;;
7843;SDS011;3967;48.702;9.326;2023-04-03T00:11:06;2.37;;;2.17;;
7843;SDS011;3967;48.702;9.326;2023-04-03T00:13:33;3.77;;;2.30;;
7843;SDS011;3967;48.702;9.326;2023-04-03T00:16:00;2.77;;;2.20;;
7843;SDS011;3967;48.702;9.326;2023-04-03T00:18:27;3.23;;;2.27;;
7843;SDS011;3967;48.702;9.326;2023-04-03T00:20:54;2.70;;;2.50;;
7843;SDS011;3967;48.702;9.326;2023-04-03T00:23:21;1.83;;;1.73;;
7843;SDS011;3967;48.702;9.326;2023-04-03T00:25:50;2.73;;;2.03;;
7843;SDS011;3967;48.702;9.326;2023-04-03T00:28:17;2.60;;;2.00;;
7843;SDS011;3967;48.702;9.326;2023-04-03T00:30:44;2.83;;;1.93;;
7843;SDS011;3967;48.702;9.326;2023-04-03T00:33:13;4.10;;;1.83;;
7843;SDS011;3967;48.702;9.326;2023-04-03T00:35:40;2.83;;;2.00;;
7843;SDS011;3967;48.702;9.326;2023-04-03T00:38:07;1.90;;;1.70;;
7843;SDS011;3967;48.702;9.326;2023-04-03T00:40:38;3.57;;;2.10;;
7843;SDS011;3967;48.702;9.326;2023-04-03T00:43:11;4.60;;;1.97;;
7843;SDS011;3967;48.702;9.326;2023-04-03T00:45:42;5.53;;;2.13;;
7843;SDS011;3967;48.702;9.326;2023-04-03T00:48:11;2.13;;;2.03;;
7843;SDS011;3967;48.702;9.326;2023-04-03T00:50:43;3.20;;;2.00;;
7843;SDS011;3967;48.702;9.326;2023-04-03T00:53:12;3.33;;;2.10;;
7843;SDS011;3967;48.702;9.326;2023-04-03T00:55:44;3.90;;;2.20;;
7843;SDS011;3967;48.702;9.326;2023-04-03T00:58:12;2.57;;;2.10;;
7843;SDS011;3967;48.702;9.326;2023-04-03T01:00:42;2.97;;;1.83;;
7843;SDS011;3967;48.702;9.326;2023-04-03T01:03:12;2.20;;;2.07;;
7843;SDS011;3967;48.702;9.326;2023-04-03T01:05:39;2.83;;;2.40;;
7843;SDS011;3967;48.702;9.326;2023-04-03T01:08:06;3.10;;;2.30;;
7843;SDS011;3967;48.702;9.326;2023-04-03T01:10:33;2.53;;;2.10;;
7843;SDS011;3967;48.702;9.326;2023-04-03T01:13:00;2.53;;;2.07;;
7843;SDS011;3967;48.702;9.326;2023-04-03T01:15:28;3.20;;;2.40;;
7843;SDS011;3967;48.702;9.326;2023-04-03T01:18:01;2.00;;;1.77;;
7843;SDS011;3967;48.702;9.326;2023-04-03T01:25:32;4.13;;;2.53;;
7843;SDS011;3967;48.702;9.326;2023-04-03T01:27:59;2.43;;;2.23;;
7843;SDS011;3967;48.702;9.326;2023-04-03T01:30:30;3.07;;;2.77;;
7843;SDS011;3967;48.702;9.326;2023-04-03T01:32:58;3.93;;;2.50;;
7843;SDS011;3967;48.702;9.326;2023-04-03T01:35:26;2.30;;;2.10;;
7843;SDS011;3967;48.702;9.326;2023-04-03T01:37:52;2.77;;;1.80;;
7843;SDS011;3967;48.702;9.326;2023-04-03T01:40:19;3.23;;;2.00;;
7843;SDS011;3967;48.702;9.326;2023-04-03T01:42:46;3.83;;;2.83;;
7843;SDS011;3967;48.702;9.326;2023-04-03T01:45:12;2.37;;;2.17;;
7843;SDS011;3967;48.702;9.326;2023-04-03T01:47:39;2.57;;;2.30;;
7843;SDS011;3967;48.702;9.326;2023-04-03T01:50:06;4.73;;;2.00;;
7843;SDS011;3967;48.702;9.326;2023-04-03T01:52:33;2.07;;;1.97;;
7843;SDS011;3967;48.702;9.326;2023-04-03T01:54:59;2.30;;;2.00;;
7843;SDS011;3967;48.702;9.326;2023-04-03T01:57:26;2.60;;;2.17;;
7843;SDS011;3967;48.702;9.326;2023-04-03T01:59:53;2.17;;;1.93;;
7843;SDS011;3967;48.702;9.326;2023-04-03T02:02:20;2.43;;;2.23;;
7843;SDS011;3967;48.702;9.326;2023-04-03T02:04:46;1.87;;;1.67;;
7843;SDS011;3967;48.702;9.326;2023-04-03T02:07:13;2.20;;;2.07;;
7843;SDS011;3967;48.702;9.326;2023-04-03T02:09:40;2.57;;;2.33;;
7843;SDS011;3967;48.702;9.326;2023-04-03T02:12:06;1.90;;;1.80;;
7843;SDS011;3967;48.702;9.326;2023-04-03T02:14:33;2.20;;;2.00;;
7843;SDS011;3967;48.702;9.326;2023-04-03T02:17:01;2.13;;;1.90;;
7843;SDS011;3967;48.702;9.326;2023-04-03T02:19:31;5.13;;;2.00;;
7843;SDS011;3967;48.702;9.326;2023-04-03T02:21:58;2.20;;;2.00;;
7843;SDS011;3967;48.702;9.326;2023-04-03T02:24:24;3.13;;;2.63;;
7843;SDS011;3967;48.702;9.326;2023-04-03T02:26:51;2.20;;;2.10;;
7843;SDS011;3967;48.702;9.326;2023-04-03T02:29:18;2.30;;;2.10;;
7843;SDS011;3967;48.702;9.326;2023-04-03T02:31:45;3.60;;;2.03;;
7843;SDS011;3967;48.702;9.326;2023-04-03T02:34:11;2.57;;;2.20;;
7843;SDS011;3967;48.702;9.326;2023-04-03T02:36:38;2.10;;;2.00;;
7843;SDS011;3967;48.702;9.326;2023-04-03T02:39:05;2.17;;;1.70;;
7843;SDS011;3967;48.702;9.326;2023-04-03T02:41:32;2.13;;;2.00;;
7843;SDS011;3967;48.702;9.326;2023-04-03T02:44:02;2.27;;;1.70;;
7843;SDS011;3967;48.702;9.326;2023-04-03T02:46:30;2.33;;;2.07;;
7843;SDS011;3967;48.702;9.326;2023-04-03T02:48:58;2.03;;;1.93;;
7843;SDS011;3967;48.702;9.326;2023-04-03T02:51:25;2.27;;;2.03;;
7843;SDS011;3967;48.702;9.326;2023-04-03T02:53:52;2.10;;;1.90;;
7843;SDS011;3967;48.702;9.326;2023-04-03T02:56:19;1.80;;;1.70;;
7843;SDS011;3967;48.702;9.326;2023-04-03T02:58:46;2.80;;;2.10;;
7843;SDS011;3967;48.702;9.326;2023-04-03T03:01:13;2.20;;;2.00;;
7843;SDS011;3967;48.702;9.326;2023-04-03T03:03:40;2.23;;;1.90;;
7843;SDS011;3967;48.702;9.326;2023-04-03T03:06:11;2.53;;;1.70;;
7843;SDS011;3967;48.702;9.326;2023-04-03T03:08:40;2.07;;;1.80;;
7843;SDS011;3967;48.702;9.326;2023-04-03T03:11:07;3.77;;;2.00;;
7843;SDS011;3967;48.702;9.326;2023-04-03T03:13:35;2.07;;;1.87;;
7843;SDS011;3967;48.702;9.326;2023-04-03T03:16:02;3.03;;;2.00;;
7843;SDS011;3967;48.702;9.326;2023-04-03T03:18:29;2.00;;;1.90;;
7843;SDS011;3967;48.702;9.326;2023-04-03T03:20:57;2.73;;;2.00;;
7843;SDS011;3967;48.702;9.326;2023-04-03T03:23:26;2.57;;;1.80;;
7843;SDS011;3967;48.702;9.326;2023-04-03T03:25:55;2.67;;;1.80;;
7843;SDS011;3967;48.702;9.326;2023-04-03T03:28:23;3.13;;;2.10;;
7843;SDS011;3967;48.702;9.326;2023-04-03T03:30:50;2.23;;;2.13;;
7843;SDS011;3967;48.702;9.326;2023-04-03T03:33:17;1.67;;;1.57;;
7843;SDS011;3967;48.702;9.326;2023-04-03T03:35:44;3.10;;;2.27;;
7843;SDS011;3967;48.702;9.326;2023-04-03T03:38:11;2.33;;;1.70;;
7843;SDS011;3967;48.702;9.326;2023-04-03T03:40:38;2.03;;;1.93;;
7843;SDS011;3967;48.702;9.326;2023-04-03T03:43:05;2.73;;;1.80;;
7843;SDS011;3967;48.702;9.326;2023-04-03T03:45:32;3.60;;;2.17;;
7843;SDS011;3967;48.702;9.326;2023-04-03T03:47:58;2.43;;;1.90;;
7843;SDS011;3967;48.702;9.326;2023-04-03T03:50:25;2.50;;;1.70;;
7843;SDS011;3967;48.702;9.326;2023-04-03T03:52:52;4.33;;;1.73;;
7843;SDS011;3967;48.702;9.326;2023-04-03T03:55:18;2.13;;;1.50;;
7843;SDS011;3967;48.702;9.326;2023-04-03T03:57:45;3.43;;;2.20;;
7843;SDS011;3967;48.702;9.326;2023-04-03T04:00:12;2.67;;;2.03;;
7843;SDS011;3967;48.702;9.326;2023-04-03T04:02:39;2.23;;;2.03;;
7843;SDS011;3967;48.702;9.326;2023-04-03T04:05:06;3.23;;;1.90;;
7843;SDS011;3967;48.702;9.326;2023-04-03T04:07:33;3.83;;;1.80;;
7843;SDS011;3967;48.702;9.326;2023-04-03T04:09:59;2.30;;;1.90;;
7843;SDS011;3967;48.702;9.326;2023-04-03T04:12:26;3.73;;;2.00;;
7843;SDS011;3967;48.702;9.326;2023-04-03T04:14:53;1.73;;;1.63;;
7843;SDS011;3967;48.702;9.326;2023-04-03T04:17:21;2.00;;;1.67;;
7843;SDS011;3967;48.702;9.326;2023-04-03T04:19:48;2.57;;;1.90;;
7843;SDS011;3967;48.702;9.326;2023-04-03T04:22:14;3.00;;;1.77;;
7843;SDS011;3967;48.702;9.326;2023-04-03T04:24:41;2.43;;;1.87;;
7843;SDS011;3967;48.702;9.326;2023-04-03T04:27:08;1.60;;;1.50;;
7843;SDS011;3967;48.702;9.326;2023-04-03T04:29:34;2.00;;;1.77;;
7843;SDS011;3967;48.702;9.326;2023-04-03T04:32:03;2.63;;;1.80;;
7843;SDS011;3967;48.702;9.326;2023-04-03T04:34:30;2.07;;;1.83;;
7843;SDS011;3967;48.702;9.326;2023-04-03T04:36:57;3.10;;;1.70;;
7843;SDS011;3967;48.702;9.326;2023-04-03T04:39:24;2.50;;;1.83;;
7843;SDS011;3967;48.702;9.326;2023-04-03T04:41:50;1.63;;;1.50;;
7843;SDS011;3967;48.702;9.326;2023-04-03T04:44:17;2.40;;;1.60;;
7843;SDS011;3967;48.702;9.326;2023-04-03T04:46:44;2.37;;;1.90;;
7843;SDS011;3967;48.702;9.326;2023-04-03T04:49:11;2.47;;;1.93;;
7843;SDS011;3967;48.702;9.326;2023-04-03T04:51:38;2.60;;;1.53;;
7843;SDS011;3967;48.702;9.326;2023-04-03T04:54:17;3.27;;;1.90;;
7843;SDS011;3967;48.702;9.326;2023-04-03T04:56:44;2.27;;;1.63;;
7843;SDS011;3967;48.702;9.326;2023-04-03T04:59:10;1.90;;;1.53;;
7843;SDS011;3967;48.702;9.326;2023-04-03T05:01:37;2.57;;;1.50;;
7843;SDS011;3967;48.702;9.326;2023-04-03T05:04:04;3.47;;;1.70;;
7843;SDS011;3967;48.702;9.326;2023-04-03T05:06:31;1.70;;;1.60;;
7843;SDS011;3967;48.702;9.326;2023-04-03T05:08:58;2.30;;;1.57;;
7843;SDS011;3967;48.702;9.326;2023-04-03T05:11:25;1.80;;;1.70;;
7843;SDS011;3967;48.702;9.326;2023-04-03T05:13:52;3.30;;;1.57;;
7843;SDS011;3967;48.702;9.326;2023-04-03T05:16:19;2.80;;;1.60;;
7843;SDS011;3967;48.702;9.326;2023-04-03T05:18:46;1.53;;;1.40;;
7843;SDS011;3967;48.702;9.326;2023-04-03T05:21:13;1.80;;;1.70;;
7843;SDS011;3967;48.702;9.326;2023-04-03T05:23:39;1.57;;;1.43;;
7843;SDS011;3967;48.702;9.326;2023-04-03T05:26:06;1.80;;;1.30;;
7843;SDS011;3967;48.702;9.326;2023-04-03T05:28:33;1.50;;;1.37;;
7843;SDS011;3967;48.702;9.326;2023-04-03T05:30:59;3.00;;;1.80;;
7843;SDS011;3967;48.702;9.326;2023-04-03T05:33:26;3.00;;;1.47;;
7843;SDS011;3967;48.702;9.326;2023-04-03T05:35:53;1.40;;;1.30;;
7843;SDS011;3967;48.702;9.326;2023-04-03T05:38:21;1.77;;;1.60;;
7843;SDS011;3967;48.702;9.326;2023-04-03T05:40:48;1.90;;;1.53;;
7843;SDS011;3967;48.702;9.326;2023-04-03T05:43:14;1.87;;;1.67;;
7843;SDS011;3967;48.702;9.326;2023-04-03T05:45:42;1.67;;;1.57;;
7843;SDS011;3967;48.702;9.326;2023-04-03T05:48:12;4.13;;;1.47;;
7843;SDS011;3967;48.702;9.326;2023-04-03T05:50:39;2.73;;;1.50;;
7843;SDS011;3967;48.702;9.326;2023-04-03T05:53:10;1.73;;;1.50;;
7843;SDS011;3967;48.702;9.326;2023-04-03T05:55:43;2.13;;;1.90;;
7843;SDS011;3967;48.702;9.326;2023-04-03T05:58:10;1.50;;;1.40;;
7843;SDS011;3967;48.702;9.326;2023-04-03T06:00:37;1.73;;;1.60;;
7843;SDS011;3967;48.702;9.326;2023-04-03T06:03:03;2.20;;;1.50;;
7843;SDS011;3967;48.702;9.326;2023-04-03T06:05:31;2.73;;;1.57;;
7843;SDS011;3967;48.702;9.326;2023-04-03T06:07:58;1.67;;;1.53;;
7843;SDS011;3967;48.702;9.326;2023-04-03T06:10:24;2.67;;;1.60;;
7843;SDS011;3967;48.702;9.326;2023-04-03T06:12:52;2.20;;;1.47;;
7843;SDS011;3967;48.702;9.326;2023-04-03T06:15:19;1.67;;;1.57;;
7843;SDS011;3967;48.702;9.326;2023-04-03T06:17:46;2.50;;;1.37;;
7843;SDS011;3967;48.702;9.326;2023-04-03T06:20:13;1.47;;;1.37;;
7843;SDS011;3967;48.702;9.326;2023-04-03T06:22:39;2.00;;;1.50;;
7843;SDS011;3967;48.702;9.326;2023-04-03T06:25:08;1.70;;;1.60;;
7843;SDS011;3967;48.702;9.326;2023-04-03T06:27:36;2.93;;;1.47;;
7843;SDS011;3967;48.702;9.326;2023-04-03T06:30:03;2.13;;;1.50;;
7843;SDS011;3967;48.702;9.326;2023-04-03T06:32:31;3.60;;;1.60;;
7843;SDS011;3967;48.702;9.326;2023-04-03T06:34:58;2.63;;;2.10;;
7843;SDS011;3967;48.702;9.326;2023-04-03T06:37:24;1.43;;;1.33;;
7843;SDS011;3967;48.702;9.326;2023-04-03T06:39:55;1.70;;;1.60;;
7843;SDS011;3967;48.702;9.326;2023-04-03T06:42:23;2.67;;;1.60;;
7843;SDS011;3967;48.702;9.326;2023-04-03T06:44:49;1.50;;;1.40;;
7843;SDS011;3967;48.702;9.326;2023-04-03T06:47:16;2.90;;;1.90;;
7843;SDS011;3967;48.702;9.326;2023-04-03T06:49:43;2.73;;;1.70;;
7843;SDS011;3967;48.702;9.326;2023-04-03T06:52:11;3.43;;;1.60;;
7843;SDS011;3967;48.702;9.326;2023-04-03T06:54:40;1.87;;;1.20;;
7843;SDS011;3967;48.702;9.326;2023-04-03T06:57:07;1.80;;;1.57;;
7843;SDS011;3967;48.702;9.326;2023-04-03T06:59:34;4.30;;;1.60;;
7843;SDS011;3967;48.702;9.326;2023-04-03T07:02:02;1.63;;;1.50;;
7843;SDS011;3967;48.702;9.326;2023-04-03T07:04:29;1.60;;;1.50;;
7843;SDS011;3967;48.702;9.326;2023-04-03T07:06:56;5.00;;;1.40;;
7843;SDS011;3967;48.702;9.326;2023-04-03T07:09:23;3.83;;;1.47;;
7843;SDS011;3967;48.702;9.326;2023-04-03T07:11:50;1.77;;;1.60;;
7843;SDS011;3967;48.702;9.326;2023-04-03T07:14:17;1.87;;;1.37;;
7843;SDS011;3967;48.702;9.326;2023-04-03T07:16:44;1.70;;;1.40;;
7843;SDS011;3967;48.702;9.326;2023-04-03T07:19:11;2.73;;;1.33;;
7843;SDS011;3967;48.702;9.326;2023-04-03T07:21:37;2.77;;;1.87;;
7843;SDS011;3967;48.702;9.326;2023-04-03T07:24:04;1.50;;;1.40;;
7843;SDS011;3967;48.702;9.326;2023-04-03T07:26:32;3.70;;;1.60;;
7843;SDS011;3967;48.702;9.326;2023-04-03T07:28:59;2.90;;;1.60;;
7843;SDS011;3967;48.702;9.326;2023-04-03T07:31:26;1.37;;;1.27;;
7843;SDS011;3967;48.702;9.326;2023-04-03T07:33:52;2.40;;;1.73;;
7843;SDS011;3967;48.702;9.326;2023-04-03T07:36:20;1.60;;;1.50;;
7843;SDS011;3967;48.702;9.326;2023-04-03T07:38:48;3.67;;;1.70;;
7843;SDS011;3967;48.702;9.326;2023-04-03T07:41:16;2.37;;;1.60;;
7843;SDS011;3967;48.702;9.326;2023-04-03T07:43:44;3.17;;;2.10;;
7843;SDS011;3967;48.702;9.326;2023-04-03T07:46:13;3.50;;;1.50;;
7843;SDS011;3967;48.702;9.326;2023-04-03T07:48:39;1.67;;;1.57;;
7843;SDS011;3967;48.702;9.326;2023-04-03T07:51:06;2.17;;;1.40;;
7843;SDS011;3967;48.702;9.326;2023-04-03T07:53:33;2.50;;;1.63;;
7843;SDS011;3967;48.702;9.326;2023-04-03T07:56:00;1.83;;;1.60;;
7843;SDS011;3967;48.702;9.326;2023-04-03T07:58:29;1.60;;;1.23;;
7843;SDS011;3967;48.702;9.326;2023-04-03T08:00:56;4.60;;;1.50;;
7843;SDS011;3967;48.702;9.326;2023-04-03T08:03:23;2.17;;;1.50;;
7843;SDS011;3967;48.702;9.326;2023-04-03T08:05:50;2.27;;;1.50;;
7843;SDS011;3967;48.702;9.326;2023-04-03T08:08:18;2.17;;;1.80;;
7843;SDS011;3967;48.702;9.326;2023-04-03T08:10:50;1.60;;;1.30;;
7843;SDS011;3967;48.702;9.326;2023-04-03T08:13:18;2.13;;;1.50;;
7843;SDS011;3967;48.702;9.326;2023-04-03T08:15:46;3.33;;;1.60;;
7843;SDS011;3967;48.702;9.326;2023-04-03T08:18:13;1.77;;;1.67;;
7843;SDS011;3967;48.702;9.326;2023-04-03T08:20:41;4.33;;;2.03;;
7843;SDS011;3967;48.702;9.326;2023-04-03T08:23:09;2.77;;;1.40;;
7843;SDS011;3967;48.702;9.326;2023-04-03T08:25:38;2.33;;;1.50;;
7843;SDS011;3967;48.702;9.326;2023-04-03T08:28:05;1.53;;;1.43;;
7843;SDS011;3967;48.702;9.326;2023-04-03T08:30:32;1.73;;;1.60;;
7843;SDS011;3967;48.702;9.326;2023-04-03T08:33:00;2.23;;;1.60;;
7843;SDS011;3967;48.702;9.326;2023-04-03T08:35:28;4.07;;;1.70;;
7843;SDS011;3967;48.702;9.326;2023-04-03T08:37:55;2.90;;;1.67;;
7843;SDS011;3967;48.702;9.326;2023-04-03T08:40:23;3.20;;;1.93;;
7843;SDS011;3967;48.702;9.326;2023-04-03T08:48:04;2.97;;;1.80;;
7843;SDS011;3967;48.702;9.326;2023-04-03T08:50:44;1.50;;;1.40;;
7843;SDS011;3967;48.702;9.326;2023-04-03T08:53:25;3.83;;;1.63;;
7843;SDS011;3967;48.702;9.326;2023-04-03T08:55:54;4.30;;;1.80;;
7843;SDS011;3967;48.702;9.326;2023-04-03T08:58:23;3.67;;;1.70;;
7843;SDS011;3967;48.702;9.326;2023-04-03T09:00:59;1.87;;;1.50;;
7843;SDS011;3967;48.702;9.326;2023-04-03T09:03:32;1.80;;;1.37;;
7843;SDS011;3967;48.702;9.326;2023-04-03T09:08:43;2.50;;;1.83;;
7843;SDS011;3967;48.702;9.326;2023-04-03T09:14:01;4.33;;;1.93;;
7843;SDS011;3967;48.702;9.326;2023-04-03T09:19:47;5.07;;;1.70;;
7843;SDS011;3967;48.702;9.326;2023-04-03T09:22:21;2.90;;;1.63;;
7843;SDS011;3967;48.702;9.326;2023-04-03T09:24:57;1.97;;;1.30;;
7843;SDS011;3967;48.702;9.326;2023-04-03T09:27:38;1.83;;;1.50;;
7843;SDS011;3967;48.702;9.326;2023-04-03T09:30:05;1.93;;;1.63;;
7843;SDS011;3967;48.702;9.326;2023-04-03T09:32:34;2.33;;;1.40;;
7843;SDS011;3967;48.702;9.326;2023-04-03T09:35:36;1.97;;;1.23;;
7843;SDS011;3967;48.702;9.326;2023-04-03T09:40:40;2.70;;;1.33;;
7843;SDS011;3967;48.702;9.326;2023-04-03T09:45:44;2.20;;;1.00;;
7843;SDS011;3967;48.702;9.326;2023-04-03T09:53:38;1.27;;;0.97;;
7843;SDS011;3967;48.702;9.326;2023-04-03T09:58:51;3.13;;;1.50;;
7843;SDS011;3967;48.702;9.326;2023-04-03T10:01:39;3.40;;;1.10;;
7843;SDS011;3967;48.702;9.326;2023-04-03T10:06:49;2.60;;;0.90;;
7843;SDS011;3967;48.702;9.326;2023-04-03T10:09:28;1.13;;;0.87;;
7843;SDS011;3967;48.702;9.326;2023-04-03T10:12:06;1.50;;;0.80;;
7843;SDS011;3967;48.702;9.326;2023-04-03T10:14:39;1.13;;;1.03;;
7843;SDS011;3967;48.702;9.326;2023-04-03T10:17:21;1.10;;;1.00;;
7843;SDS011;3967;48.702;9.326;2023-04-03T10:20:07;1.90;;;0.80;;
7843;SDS011;3967;48.702;9.326;2023-04-03T10:25:42;2.83;;;1.30;;
7843;SDS011;3967;48.702;9.326;2023-04-03T10:29:06;1.80;;;1.10;;
7843;SDS011;3967;48.702;9.326;2023-04-03T10:31:10;1.93;;;1.40;;
7843;SDS011;3967;48.702;9.326;2023-04-03T10:33:55;1.93;;;1.53;;
7843;SDS011;3967;48.702;9.326;2023-04-03T10:47:25;1.20;;;1.10;;
7843;SDS011;3967;48.702;9.326;2023-04-03T10:50:02;4.80;;;1.50;;
7843;SDS011;3967;48.702;9.326;2023-04-03T10:56:18;4.43;;;1.53;;
7843;SDS011;3967;48.702;9.326;2023-04-03T10:58:35;1.70;;;1.40;;
7843;SDS011;3967;48.702;9.326;2023-04-03T11:01:11;2.13;;;1.10;;
7843;SDS011;3967;48.702;9.326;2023-04-03T11:04:03;2.23;;;1.33;;
7843;SDS011;3967;48.702;9.326;2023-04-03T11:06:36;1.30;;;1.00;;
7843;SDS011;3967;48.702;9.326;2023-04-03T11:12:15;2.57;;;1.40;;
7843;SDS011;3967;48.702;9.326;2023-04-03T11:14:43;2.13;;;1.33;;
7843;SDS011;3967;48.702;9.326;2023-04-03T11:19:57;3.17;;;1.17;;
7843;SDS011;3967;48.702;9.326;2023-04-03T11:22:51;2.30;;;1.10;;
7843;SDS011;3967;48.702;9.326;2023-04-03T11:25:38;3.10;;;0.90;;
7843;SDS011;3967;48.702;9.326;2023-04-03T11:28:14;2.27;;;1.10;;
7843;SDS011;3967;48.702;9.326;2023-04-03T11:35:59;1.17;;;0.97;;
7843;SDS011;3967;48.702;9.326;2023-04-03T11:38:51;2.53;;;0.90;;
7843;SDS011;3967;48.702;9.326;2023-04-03T11:41:28;2.60;;;0.90;;
7843;SDS011;3967;48.702;9.326;2023-04-03T11:43:58;2.97;;;1.00;;
7843;SDS011;3967;48.702;9.326;2023-04-03T11:46:52;1.10;;;0.80;;
7843;SDS011;3967;48.702;9.326;2023-04-03T11:55:54;1.80;;;0.80;;
7843;SDS011;3967;48.702;9.326;2023-04-03T12:13:35;2.27;;;0.87;;
7843;SDS011;3967;48.702;9.326;2023-04-03T12:16:06;2.97;;;1.03;;
7843;SDS011;3967;48.702;9.326;2023-04-03T12:21:15;3.00;;;1.07;;
7843;SDS011;3967;48.702;9.326;2023-04-03T12:24:47;1.10;;;1.00;;
7843;SDS011;3967;48.702;9.326;2023-04-03T12:34:51;1.03;;;0.90;;
7843;SDS011;3967;48.702;9.326;2023-04-03T12:40:50;2.13;;;0.80;;
7843;SDS011;3967;48.702;9.326;2023-04-03T12:43:32;1.53;;;1.17;;
7843;SDS011;3967;48.702;9.326;2023-04-03T12:46:23;1.50;;;1.10;;
7843;SDS011;3967;48.702;9.326;2023-04-03T12:48:56;1.17;;;0.90;;
7843;SDS011;3967;48.702;9.326;2023-04-03T12:51:28;3.03;;;1.20;;
7843;SDS011;3967;48.702;9.326;2023-04-03T12:59:38;3.30;;;1.10;;
7843;SDS011;3967;48.702;9.326;2023-04-03T13:02:23;1.90;;;1.10;;
7843;SDS011;3967;48.702;9.326;2023-04-03T13:04:56;3.47;;;1.13;;
7843;SDS011;3967;48.702;9.326;2023-04-03T13:07:29;1.67;;;1.20;;
7843;SDS011;3967;48.702;9.326;2023-04-03T13:12:34;1.30;;;1.10;;
7843;SDS011;3967;48.702;9.326;2023-04-03T13:15:11;1.47;;;1.07;;
7843;SDS011;3967;48.702;9.326;2023-04-03T13:17:41;0.83;;;0.83;;
7843;SDS011;3967;48.702;9.326;2023-04-03T13:20:19;1.63;;;0.80;;
7843;SDS011;3967;48.702;9.326;2023-04-03T13:25:18;1.93;;;0.90;;
7843;SDS011;3967;48.702;9.326;2023-04-03T13:27:47;1.37;;;0.73;;
7843;SDS011;3967;48.702;9.326;2023-04-03T13:32:57;1.70;;;1.00;;
7843;SDS011;3967;48.702;9.326;2023-04-03T13:35:31;1.37;;;0.93;;
7843;SDS011;3967;48.702;9.326;2023-04-03T13:38:06;1.50;;;0.80;;
7843;SDS011;3967;48.702;9.326;2023-04-03T13:40:53;1.43;;;1.10;;
7843;SDS011;3967;48.702;9.326;2023-04-03T13:43:23;2.27;;;1.03;;
7843;SDS011;3967;48.702;9.326;2023-04-03T13:46:04;3.73;;;1.30;;
7843;SDS011;3967;48.702;9.326;2023-04-03T13:48:42;3.43;;;1.40;;
7843;SDS011;3967;48.702;9.326;2023-04-03T13:54:12;3.63;;;1.00;;
7843;SDS011;3967;48.702;9.326;2023-04-03T13:56:39;3.70;;;1.30;;
7843;SDS011;3967;48.702;9.326;2023-04-03T14:01:43;1.40;;;1.10;;
7843;SDS011;3967;48.702;9.326;2023-04-03T14:04:26;2.57;;;0.87;;
7843;SDS011;3967;48.702;9.326;2023-04-03T14:06:55;2.00;;;1.00;;
7843;SDS011;3967;48.702;9.326;2023-04-03T14:09:24;1.40;;;1.20;;
7843;SDS011;3967;48.702;9.326;2023-04-03T14:11:54;1.10;;;1.00;;
7843;SDS011;3967;48.702;9.326;2023-04-03T14:14:27;1.10;;;1.00;;
7843;SDS011;3967;48.702;9.326;2023-04-03T14:16:59;3.97;;;1.20;;
7843;SDS011;3967;48.702;9.326;2023-04-03T14:19:31;1.80;;;1.20;;
7843;SDS011;3967;48.702;9.326;2023-04-03T14:22:01;1.80;;;1.00;;
7843;SDS011;3967;48.702;9.326;2023-04-03T14:24:38;2.00;;;1.00;;
7843;SDS011;3967;48.702;9.326;2023-04-03T14:27:11;0.97;;;0.90;;
7843;SDS011;3967;48.702;9.326;2023-04-03T14:30:08;1.17;;;1.07;;
7843;SDS011;3967;48.702;9.326;2023-04-03T14:32:41;3.27;;;1.33;;
7843;SDS011;3967;48.702;9.326;2023-04-03T14:35:08;1.13;;;0.90;;
7843;SDS011;3967;48.702;9.326;2023-04-03T14:37:35;1.23;;;1.10;;
7843;SDS011;3967;48.702;9.326;2023-04-03T14:40:05;1.10;;;1.00;;
7843;SDS011;3967;48.702;9.326;2023-04-03T14:42:35;1.90;;;0.97;;
7843;SDS011;3967;48.702;9.326;2023-04-03T14:45:04;4.63;;;1.67;;
7843;SDS011;3967;48.702;9.326;2023-04-03T14:47:36;1.27;;;1.10;;
7843;SDS011;3967;48.702;9.326;2023-04-03T14:50:31;1.87;;;1.10;;
7843;SDS011;3967;48.702;9.326;2023-04-03T14:52:58;1.87;;;1.10;;
7843;SDS011;3967;48.702;9.326;2023-04-03T14:55:25;1.23;;;1.13;;
7843;SDS011;3967;48.702;9.326;2023-04-03T14:57:52;3.43;;;1.13;;
7843;SDS011;3967;48.702;9.326;2023-04-03T15:00:20;2.93;;;1.47;;
7843;SDS011;3967;48.702;9.326;2023-04-03T15:02:47;1.10;;;1.00;;
7843;SDS011;3967;48.702;9.326;2023-04-03T15:05:15;2.33;;;1.10;;
7843;SDS011;3967;48.702;9.326;2023-04-03T15:07:43;3.27;;;1.30;;
7843;SDS011;3967;48.702;9.326;2023-04-03T15:10:20;2.33;;;1.00;;
7843;SDS011;3967;48.702;9.326;2023-04-03T15:12:50;4.40;;;1.10;;
7843;SDS011;3967;48.702;9.326;2023-04-03T15:15:18;1.57;;;1.20;;
7843;SDS011;3967;48.702;9.326;2023-04-03T15:17:47;1.40;;;1.10;;
7843;SDS011;3967;48.702;9.326;2023-04-03T15:20:21;2.00;;;1.30;;
7843;SDS011;3967;48.702;9.326;2023-04-03T15:22:50;1.97;;;1.10;;
7843;SDS011;3967;48.702;9.326;2023-04-03T15:25:17;1.77;;;1.10;;
7843;SDS011;3967;48.702;9.326;2023-04-03T15:27:44;1.13;;;1.07;;
7843;SDS011;3967;48.702;9.326;2023-04-03T15:30:13;1.90;;;1.20;;
7843;SDS011;3967;48.702;9.326;2023-04-03T15:32:42;2.53;;;1.40;;
7843;SDS011;3967;48.702;9.326;2023-04-03T15:35:09;1.20;;;1.10;;
7843;SDS011;3967;48.702;9.326;2023-04-03T15:37:36;1.87;;;1.10;;
7843;SDS011;3967;48.702;9.326;2023-04-03T15:40:04;2.03;;;1.33;;
7843;SDS011;3967;48.702;9.326;2023-04-03T15:42:32;2.63;;;1.10;;
7843;SDS011;3967;48.702;9.326;2023-04-03T15:44:58;2.63;;;1.20;;
7843;SDS011;3967;48.702;9.326;2023-04-03T15:47:26;2.97;;;1.40;;
7843;SDS011;3967;48.702;9.326;2023-04-03T15:49:53;1.30;;;1.20;;
7843;SDS011;3967;48.702;9.326;2023-04-03T15:52:21;1.97;;;1.23;;
7843;SDS011;3967;48.702;9.326;2023-04-03T15:54:48;1.23;;;1.13;;
7843;SDS011;3967;48.702;9.326;2023-04-03T15:57:15;3.00;;;1.47;;
7843;SDS011;3967;48.702;9.326;2023-04-03T15:59:42;1.60;;;1.00;;
7843;SDS011;3967;48.702;9.326;2023-04-03T16:02:08;1.37;;;1.10;;
7843;SDS011;3967;48.702;9.326;2023-04-03T16:04:39;1.60;;;1.20;;
7843;SDS011;3967;48.702;9.326;2023-04-03T16:07:06;1.83;;;1.40;;
7843;SDS011;3967;48.702;9.326;2023-04-03T16:09:33;2.47;;;1.60;;
7843;SDS011;3967;48.702;9.326;2023-04-03T16:12:01;2.00;;;1.10;;
7843;SDS011;3967;48.702;9.326;2023-04-03T16:14:28;1.90;;;1.27;;
7843;SDS011;3967;48.702;9.326;2023-04-03T16:16:56;1.90;;;1.27;;
7843;SDS011;3967;48.702;9.326;2023-04-03T16:19:25;1.90;;;1.37;;
7843;SDS011;3967;48.702;9.326;2023-04-03T16:21:52;2.43;;;0.90;;
7843;SDS011;3967;48.702;9.326;2023-04-03T16:24:20;1.77;;;1.37;;
7843;SDS011;3967;48.702;9.326;2023-04-03T16:26:47;1.87;;;1.20;;
7843;SDS011;3967;48.702;9.326;2023-04-03T16:29:14;2.03;;;1.17;;
7843;SDS011;3967;48.702;9.326;2023-04-03T16:31:41;1.10;;;0.90;;
7843;SDS011;3967;48.702;9.326;2023-04-03T16:34:08;2.17;;;1.20;;
7843;SDS011;3967;48.702;9.326;2023-04-03T16:36:35;2.10;;;1.03;;
7843;SDS011;3967;48.702;9.326;2023-04-03T16:39:03;2.13;;;1.10;;
7843;SDS011;3967;48.702;9.326;2023-04-03T16:41:30;1.87;;;0.97;;
7843;SDS011;3967;48.702;9.326;2023-04-03T16:43:58;3.03;;;0.90;;
7843;SDS011;3967;48.702;9.326;2023-04-03T16:46:24;1.07;;;0.87;;
7843;SDS011;3967;48.702;9.326;2023-04-03T16:48:51;1.70;;;1.00;;
7843;SDS011;3967;48.702;9.326;2023-04-03T16:51:18;1.20;;;1.10;;
7843;SDS011;3967;48.702;9.326;2023-04-03T16:53:45;1.10;;;1.00;;
7843;SDS011;3967;48.702;9.326;2023-04-03T16:56:12;2.40;;;1.40;;
7843;SDS011;3967;48.702;9.326;2023-04-03T16:58:39;2.30;;;1.50;;
7843;SDS011;3967;48.702;9.326;2023-04-03T17:01:09;1.77;;;1.20;;
7843;SDS011;3967;48.702;9.326;2023-04-03T17:03:38;1.07;;;1.00;;
7843;SDS011;3967;48.702;9.326;2023-04-03T17:06:05;1.60;;;0.90;;
7843;SDS011;3967;48.702;9.326;2023-04-03T17:08:32;1.10;;;0.90;;
7843;SDS011;3967;48.702;9.326;2023-04-03T17:10:59;2.77;;;1.23;;
7843;SDS011;3967;48.702;9.326;2023-04-03T17:13:26;1.57;;;0.97;;
7843;SDS011;3967;48.702;9.326;2023-04-03T17:15:57;1.37;;;1.20;;
7843;SDS011;3967;48.702;9.326;2023-04-03T17:18:24;1.03;;;0.93;;
7843;SDS011;3967;48.702;9.326;2023-04-03T17:20:52;1.30;;;1.20;;
7843;SDS011;3967;48.702;9.326;2023-04-03T17:23:19;1.73;;;0.90;;
7843;SDS011;3967;48.702;9.326;2023-04-03T17:25:46;1.83;;;1.13;;
7843;SDS011;3967;48.702;9.326;2023-04-03T17:28:13;1.60;;;1.10;;